EDV5111 KJFK-KDCA
Flight info
| Callsign | EDV5111 |
|---|---|
| Flight time | 0h 44m |
| Altitude | 22000 |
| Route | RBV Q430 COPES Q75 MXE CLIPR3 |
| Aircraft | CRJ9/M-L/S |
Departure
| Time | 2026-05-06 20:01 |
|---|---|
| Airport | John F. Kennedy International Airport (KJFK) |
Arrival
| Time | 2026-05-06 20:45 |
|---|---|
| Airport | Ronald Reagan Washington National Airport (KDCA) |
| Time | Latitude | Longitude | Altitude | Speed | Heading |
|---|---|---|---|---|---|
| 2026-05-06 19:35 | 40.64233 | -73.77667 | 22 ft | 0 kts | 242° |
| 2026-05-06 19:36 | 40.64233 | -73.77666 | 22 ft | 0 kts | 242° |
| 2026-05-06 19:41 | 40.64233 | -73.77665 | 21 ft | 0 kts | 242° |
| 2026-05-06 19:46 | 40.64234 | -73.77665 | 21 ft | 0 kts | 242° |
| 2026-05-06 19:47 | 40.64234 | -73.77664 | 21 ft | 0 kts | 242° |
| 2026-05-06 19:50 | 40.64237 | -73.77657 | 30 ft | 4 kts | 240° |
| 2026-05-06 19:50 | 40.64254 | -73.77632 | 23 ft | 4 kts | 211° |
| 2026-05-06 19:50 | 40.64277 | -73.77626 | 22 ft | 4 kts | 165° |
| 2026-05-06 19:50 | 40.64286 | -73.77631 | 23 ft | 1 kts | 150° |
| 2026-05-06 19:53 | 40.64279 | -73.77626 | 22 ft | 2 kts | 150° |
| 2026-05-06 19:53 | 40.64261 | -73.77613 | 22 ft | 4 kts | 150° |
| 2026-05-06 19:53 | 40.64236 | -73.77594 | 22 ft | 5 kts | 150° |
| 2026-05-06 19:53 | 40.64202 | -73.77569 | 21 ft | 6 kts | 151° |
| 2026-05-06 19:54 | 40.64161 | -73.77539 | 21 ft | 8 kts | 151° |
| 2026-05-06 19:54 | 40.64113 | -73.77493 | 21 ft | 9 kts | 137° |
| 2026-05-06 19:54 | 40.64068 | -73.77426 | 20 ft | 10 kts | 127° |
| 2026-05-06 19:54 | 40.64028 | -73.77358 | 21 ft | 9 kts | 123° |
| 2026-05-06 19:55 | 40.64040 | -73.77295 | 21 ft | 7 kts | 41° |
| 2026-05-06 19:55 | 40.64078 | -73.77261 | 22 ft | 7 kts | 30° |
| 2026-05-06 19:55 | 40.64121 | -73.77228 | 25 ft | 8 kts | 31° |
| 2026-05-06 19:55 | 40.64185 | -73.77178 | 23 ft | 13 kts | 31° |
| 2026-05-06 19:56 | 40.64276 | -73.77106 | 21 ft | 17 kts | 31° |
| 2026-05-06 19:56 | 40.64378 | -73.77026 | 20 ft | 17 kts | 30° |
| 2026-05-06 19:56 | 40.64495 | -73.76987 | 17 ft | 13 kts | 5° |
| 2026-05-06 19:56 | 40.64573 | -73.76937 | 17 ft | 13 kts | 30° |
| 2026-05-06 19:57 | 40.64662 | -73.76868 | 16 ft | 16 kts | 31° |
| 2026-05-06 19:57 | 40.64762 | -73.76789 | 17 ft | 17 kts | 31° |
| 2026-05-06 19:57 | 40.64860 | -73.76713 | 21 ft | 16 kts | 29° |
| 2026-05-06 19:57 | 40.64947 | -73.76646 | 19 ft | 17 kts | 30° |
| 2026-05-06 19:58 | 40.65044 | -73.76569 | 19 ft | 15 kts | 31° |
| 2026-05-06 19:58 | 40.65102 | -73.76510 | 20 ft | 8 kts | 72° |
| 2026-05-06 19:58 | 40.65091 | -73.76455 | 22 ft | 4 kts | 122° |
| 2026-05-06 19:58 | 40.65090 | -73.76453 | 22 ft | 0 kts | 123° |
| 2026-05-06 19:59 | 40.65089 | -73.76451 | 22 ft | 2 kts | 123° |
| 2026-05-06 19:59 | 40.65076 | -73.76424 | 21 ft | 5 kts | 122° |
| 2026-05-06 19:59 | 40.65046 | -73.76366 | 21 ft | 8 kts | 144° |
| 2026-05-06 20:00 | 40.64975 | -73.76393 | 21 ft | 17 kts | 211° |
| 2026-05-06 20:00 | 40.64822 | -73.76512 | 21 ft | 44 kts | 211° |
| 2026-05-06 20:00 | 40.64392 | -73.76847 | 17 ft | 98 kts | 211° |
| 2026-05-06 20:00 | 40.63678 | -73.77406 | 19 ft | 139 kts | 210° |
| 2026-05-06 20:01 | 40.62783 | -73.78116 | 223 ft | 156 kts | 211° |
| 2026-05-06 20:01 | 40.61885 | -73.78855 | 869 ft | 154 kts | 210° |
| 2026-05-06 20:01 | 40.60964 | -73.79605 | 1540 ft | 156 kts | 216° |
| 2026-05-06 20:01 | 40.60056 | -73.80422 | 2151 ft | 165 kts | 218° |
| 2026-05-06 20:02 | 40.59091 | -73.81334 | 2762 ft | 179 kts | 219° |
| 2026-05-06 20:02 | 40.58020 | -73.82358 | 3246 ft | 201 kts | 219° |
| 2026-05-06 20:02 | 40.56835 | -73.83488 | 3838 ft | 219 kts | 219° |
| 2026-05-06 20:02 | 40.55455 | -73.84508 | 4419 ft | 240 kts | 210° |
| 2026-05-06 20:03 | 40.53896 | -73.85390 | 5316 ft | 240 kts | 209° |
| 2026-05-06 20:03 | 40.52623 | -73.86734 | 6151 ft | 236 kts | 237° |
| 2026-05-06 20:03 | 40.51749 | -73.88577 | 6955 ft | 238 kts | 240° |
| 2026-05-06 20:03 | 40.50901 | -73.90443 | 7812 ft | 238 kts | 240° |
| 2026-05-06 20:04 | 40.50038 | -73.92315 | 8694 ft | 240 kts | 240° |
| 2026-05-06 20:04 | 40.49133 | -73.94183 | 9532 ft | 245 kts | 239° |
| 2026-05-06 20:04 | 40.48186 | -73.96066 | 10228 ft | 255 kts | 238° |
| 2026-05-06 20:04 | 40.47153 | -73.98067 | 10591 ft | 273 kts | 238° |
| 2026-05-06 20:05 | 40.46108 | -74.00087 | 11012 ft | 288 kts | 237° |
| 2026-05-06 20:05 | 40.45059 | -74.02110 | 11566 ft | 297 kts | 237° |
| 2026-05-06 20:05 | 40.43890 | -74.04360 | 12294 ft | 301 kts | 237° |
| 2026-05-06 20:05 | 40.42705 | -74.06644 | 13057 ft | 305 kts | 237° |
| 2026-05-06 20:06 | 40.41500 | -74.08953 | 13791 ft | 308 kts | 237° |
| 2026-05-06 20:06 | 40.40302 | -74.11260 | 14450 ft | 312 kts | 237° |
| 2026-05-06 20:06 | 40.39068 | -74.13626 | 15119 ft | 316 kts | 237° |
| 2026-05-06 20:06 | 40.37822 | -74.16019 | 15768 ft | 320 kts | 238° |
| 2026-05-06 20:07 | 40.36559 | -74.18444 | 16402 ft | 323 kts | 238° |
| 2026-05-06 20:07 | 40.35281 | -74.20894 | 17031 ft | 327 kts | 238° |
| 2026-05-06 20:07 | 40.33983 | -74.23374 | 17637 ft | 331 kts | 238° |
| 2026-05-06 20:07 | 40.32674 | -74.25879 | 18219 ft | 335 kts | 238° |
| 2026-05-06 20:08 | 40.31355 | -74.28394 | 18788 ft | 337 kts | 238° |
| 2026-05-06 20:08 | 40.30025 | -74.30926 | 19357 ft | 338 kts | 238° |
| 2026-05-06 20:08 | 40.28687 | -74.33475 | 19913 ft | 340 kts | 239° |
| 2026-05-06 20:08 | 40.27344 | -74.36037 | 20434 ft | 343 kts | 239° |
| 2026-05-06 20:09 | 40.25990 | -74.38593 | 21047 ft | 342 kts | 240° |
| 2026-05-06 20:09 | 40.24632 | -74.41167 | 21483 ft | 345 kts | 240° |
| 2026-05-06 20:09 | 40.23271 | -74.43762 | 21687 ft | 347 kts | 240° |
| 2026-05-06 20:09 | 40.21907 | -74.46402 | 21776 ft | 351 kts | 243° |
| 2026-05-06 20:10 | 40.21242 | -74.48317 | 21808 ft | 350 kts | 254° |
| 2026-05-06 20:10 | 40.20542 | -74.51397 | 21835 ft | 356 kts | 256° |
| 2026-05-06 20:10 | 40.19718 | -74.55604 | 21838 ft | 364 kts | 260° |
| 2026-05-06 20:10 | 40.19381 | -74.58914 | 21843 ft | 370 kts | 265° |
| 2026-05-06 20:11 | 40.19175 | -74.62297 | 21856 ft | 376 kts | 265° |
| 2026-05-06 20:11 | 40.18977 | -74.65739 | 21850 ft | 382 kts | 265° |
| 2026-05-06 20:11 | 40.18826 | -74.68049 | 21849 ft | 386 kts | 264° |
| 2026-05-06 20:11 | 40.18455 | -74.72754 | 21841 ft | 392 kts | 264° |
| 2026-05-06 20:12 | 40.18269 | -74.75110 | 21841 ft | 393 kts | 264° |
| 2026-05-06 20:12 | 40.17984 | -74.78667 | 21845 ft | 394 kts | 264° |
| 2026-05-06 20:12 | 40.17696 | -74.82227 | 21841 ft | 394 kts | 264° |
| 2026-05-06 20:12 | 40.17410 | -74.85787 | 21840 ft | 393 kts | 264° |
| 2026-05-06 20:13 | 40.17122 | -74.89343 | 21829 ft | 393 kts | 264° |
| 2026-05-06 20:13 | 40.16836 | -74.92895 | 21827 ft | 392 kts | 264° |
| 2026-05-06 20:13 | 40.16548 | -74.96443 | 21823 ft | 392 kts | 264° |
| 2026-05-06 20:13 | 40.16258 | -74.99982 | 21828 ft | 391 kts | 264° |
| 2026-05-06 20:14 | 40.16012 | -75.02978 | 21836 ft | 391 kts | 264° |
| 2026-05-06 20:14 | 40.15721 | -75.06506 | 21833 ft | 390 kts | 264° |
| 2026-05-06 20:14 | 40.15428 | -75.10031 | 21851 ft | 390 kts | 264° |
| 2026-05-06 20:14 | 40.15135 | -75.13551 | 21856 ft | 389 kts | 264° |
| 2026-05-06 20:15 | 40.14843 | -75.17068 | 21842 ft | 389 kts | 264° |
| 2026-05-06 20:15 | 40.14552 | -75.20582 | 21833 ft | 389 kts | 264° |
| 2026-05-06 20:15 | 40.14263 | -75.24046 | 21832 ft | 388 kts | 264° |
| 2026-05-06 20:15 | 40.13962 | -75.27593 | 21832 ft | 387 kts | 264° |
| 2026-05-06 20:16 | 40.13675 | -75.31047 | 21839 ft | 387 kts | 264° |
| 2026-05-06 20:16 | 40.13246 | -75.34515 | 21829 ft | 388 kts | 253° |
| 2026-05-06 20:16 | 40.11994 | -75.37657 | 21850 ft | 392 kts | 242° |
| 2026-05-06 20:16 | 40.10550 | -75.40676 | 21852 ft | 392 kts | 242° |
| 2026-05-06 20:17 | 40.08956 | -75.43588 | 21861 ft | 397 kts | 235° |
| 2026-05-06 20:17 | 40.07063 | -75.46228 | 21870 ft | 400 kts | 231° |
| 2026-05-06 20:17 | 40.05093 | -75.48792 | 21870 ft | 400 kts | 231° |
| 2026-05-06 20:17 | 40.03128 | -75.51356 | 21869 ft | 399 kts | 231° |
| 2026-05-06 20:18 | 40.01209 | -75.53962 | 21434 ft | 398 kts | 232° |
| 2026-05-06 20:18 | 39.99604 | -75.56207 | 20654 ft | 397 kts | 232° |
| 2026-05-06 20:18 | 39.97723 | -75.58827 | 19957 ft | 393 kts | 232° |
| 2026-05-06 20:18 | 39.95874 | -75.61425 | 19395 ft | 388 kts | 232° |
| 2026-05-06 20:19 | 39.94042 | -75.63988 | 19125 ft | 384 kts | 232° |
| 2026-05-06 20:19 | 39.92236 | -75.66510 | 19223 ft | 374 kts | 232° |
| 2026-05-06 20:19 | 39.90596 | -75.69132 | 18928 ft | 374 kts | 238° |
| 2026-05-06 20:19 | 39.89132 | -75.71935 | 18566 ft | 375 kts | 240° |
| 2026-05-06 20:20 | 39.87723 | -75.74813 | 18152 ft | 380 kts | 240° |
| 2026-05-06 20:20 | 39.86289 | -75.77720 | 17690 ft | 384 kts | 239° |
| 2026-05-06 20:20 | 39.84803 | -75.80605 | 17241 ft | 378 kts | 238° |
| 2026-05-06 20:20 | 39.83355 | -75.83383 | 16766 ft | 363 kts | 238° |
| 2026-05-06 20:21 | 39.81955 | -75.86047 | 16352 ft | 350 kts | 238° |
| 2026-05-06 20:21 | 39.80606 | -75.88635 | 16186 ft | 341 kts | 238° |
| 2026-05-06 20:21 | 39.79289 | -75.91155 | 16122 ft | 333 kts | 238° |
| 2026-05-06 20:21 | 39.78002 | -75.93584 | 16103 ft | 329 kts | 238° |
| 2026-05-06 20:22 | 39.76699 | -75.96015 | 16078 ft | 327 kts | 238° |
| 2026-05-06 20:22 | 39.75411 | -75.98450 | 16060 ft | 326 kts | 238° |
| 2026-05-06 20:22 | 39.74332 | -76.00513 | 16037 ft | 327 kts | 238° |
| 2026-05-06 20:22 | 39.73050 | -76.02961 | 16027 ft | 328 kts | 238° |
| 2026-05-06 20:23 | 39.71761 | -76.05413 | 16046 ft | 329 kts | 238° |
| 2026-05-06 20:23 | 39.70464 | -76.07862 | 16092 ft | 330 kts | 238° |
| 2026-05-06 20:23 | 39.69165 | -76.10330 | 16075 ft | 331 kts | 238° |
| 2026-05-06 20:23 | 39.67875 | -76.12800 | 16102 ft | 331 kts | 238° |
| 2026-05-06 20:24 | 39.66575 | -76.15271 | 15995 ft | 331 kts | 238° |
| 2026-05-06 20:24 | 39.65282 | -76.17719 | 15704 ft | 328 kts | 238° |
| 2026-05-06 20:24 | 39.64000 | -76.20151 | 15379 ft | 325 kts | 238° |
| 2026-05-06 20:24 | 39.62723 | -76.22563 | 15101 ft | 323 kts | 238° |
| 2026-05-06 20:25 | 39.61453 | -76.24952 | 14808 ft | 319 kts | 238° |
| 2026-05-06 20:25 | 39.60210 | -76.27298 | 14523 ft | 313 kts | 238° |
| 2026-05-06 20:25 | 39.58929 | -76.29543 | 14216 ft | 309 kts | 229° |
| 2026-05-06 20:25 | 39.57303 | -76.31356 | 13928 ft | 307 kts | 222° |
| 2026-05-06 20:26 | 39.55571 | -76.32964 | 13644 ft | 305 kts | 219° |
| 2026-05-06 20:26 | 39.53802 | -76.34461 | 13330 ft | 302 kts | 218° |
| 2026-05-06 20:26 | 39.52040 | -76.35927 | 13014 ft | 300 kts | 218° |
| 2026-05-06 20:26 | 39.50292 | -76.37377 | 12703 ft | 297 kts | 218° |
| 2026-05-06 20:27 | 39.48576 | -76.38846 | 12404 ft | 295 kts | 219° |
| 2026-05-06 20:27 | 39.46877 | -76.40315 | 12111 ft | 292 kts | 219° |
| 2026-05-06 20:27 | 39.45190 | -76.41769 | 11799 ft | 290 kts | 218° |
| 2026-05-06 20:27 | 39.43524 | -76.43214 | 11568 ft | 286 kts | 219° |
| 2026-05-06 20:28 | 39.41893 | -76.44631 | 11437 ft | 287 kts | 219° |
| 2026-05-06 20:28 | 39.40237 | -76.46079 | 11315 ft | 288 kts | 219° |
| 2026-05-06 20:28 | 39.38572 | -76.47521 | 11191 ft | 289 kts | 218° |
| 2026-05-06 20:28 | 39.36901 | -76.48965 | 11091 ft | 289 kts | 219° |
| 2026-05-06 20:29 | 39.35230 | -76.50411 | 10968 ft | 289 kts | 218° |
| 2026-05-06 20:29 | 39.33557 | -76.51859 | 10870 ft | 290 kts | 219° |
| 2026-05-06 20:29 | 39.31878 | -76.53310 | 10781 ft | 291 kts | 219° |
| 2026-05-06 20:29 | 39.30198 | -76.54763 | 10644 ft | 288 kts | 218° |
| 2026-05-06 20:30 | 39.28567 | -76.56171 | 10471 ft | 276 kts | 219° |
| 2026-05-06 20:30 | 39.25452 | -76.58853 | 10138 ft | 266 kts | 219° |
| 2026-05-06 20:30 | 39.23928 | -76.60176 | 10095 ft | 262 kts | 219° |
| 2026-05-06 20:31 | 39.22419 | -76.61474 | 10101 ft | 260 kts | 218° |
| 2026-05-06 20:31 | 39.20890 | -76.62744 | 10185 ft | 260 kts | 218° |
| 2026-05-06 20:31 | 39.19411 | -76.64030 | 10354 ft | 252 kts | 219° |
| 2026-05-06 20:31 | 39.17964 | -76.65352 | 10284 ft | 257 kts | 220° |
| 2026-05-06 20:32 | 39.16523 | -76.66744 | 10197 ft | 260 kts | 224° |
| 2026-05-06 20:32 | 39.15165 | -76.68269 | 10142 ft | 259 kts | 226° |
| 2026-05-06 20:32 | 39.13851 | -76.69855 | 9739 ft | 258 kts | 227° |
| 2026-05-06 20:32 | 39.12543 | -76.71436 | 9347 ft | 258 kts | 226° |
| 2026-05-06 20:33 | 39.11239 | -76.73010 | 8960 ft | 256 kts | 227° |
| 2026-05-06 20:33 | 39.09942 | -76.74584 | 8569 ft | 256 kts | 226° |
| 2026-05-06 20:33 | 39.08638 | -76.76128 | 8373 ft | 252 kts | 228° |
| 2026-05-06 20:33 | 39.07397 | -76.77685 | 8154 ft | 247 kts | 228° |
| 2026-05-06 20:34 | 39.06119 | -76.79210 | 7770 ft | 256 kts | 223° |
| 2026-05-06 20:34 | 39.04749 | -76.80635 | 7429 ft | 251 kts | 226° |
| 2026-05-06 20:34 | 39.03493 | -76.82133 | 7018 ft | 249 kts | 227° |
| 2026-05-06 20:34 | 39.02231 | -76.83649 | 6622 ft | 248 kts | 227° |
| 2026-05-06 20:35 | 39.00968 | -76.85139 | 6307 ft | 243 kts | 227° |
| 2026-05-06 20:35 | 38.99823 | -76.86496 | 6148 ft | 229 kts | 228° |
| 2026-05-06 20:35 | 38.98795 | -76.87715 | 6069 ft | 216 kts | 228° |
| 2026-05-06 20:35 | 38.97738 | -76.89048 | 5991 ft | 211 kts | 238° |
| 2026-05-06 20:36 | 38.97327 | -76.90766 | 5707 ft | 201 kts | 266° |
| 2026-05-06 20:36 | 38.97278 | -76.92550 | 5465 ft | 199 kts | 269° |
| 2026-05-06 20:36 | 38.97304 | -76.94317 | 5234 ft | 196 kts | 271° |
| 2026-05-06 20:36 | 38.97379 | -76.96058 | 5113 ft | 198 kts | 272° |
| 2026-05-06 20:37 | 38.97472 | -76.97818 | 5067 ft | 196 kts | 272° |
| 2026-05-06 20:37 | 38.97555 | -76.99576 | 5038 ft | 201 kts | 271° |
| 2026-05-06 20:37 | 38.97612 | -77.01121 | 5030 ft | 205 kts | 271° |
| 2026-05-06 20:37 | 38.97984 | -77.02895 | 5014 ft | 212 kts | 302° |
| 2026-05-06 20:38 | 38.98944 | -77.04359 | 4872 ft | 217 kts | 308° |
| 2026-05-06 20:38 | 39.00019 | -77.05734 | 4664 ft | 218 kts | 311° |
| 2026-05-06 20:38 | 39.00985 | -77.06866 | 4439 ft | 217 kts | 313° |
| 2026-05-06 20:38 | 39.02104 | -77.08157 | 4201 ft | 214 kts | 313° |
| 2026-05-06 20:39 | 39.03196 | -77.09425 | 4086 ft | 210 kts | 311° |
| 2026-05-06 20:39 | 39.04254 | -77.10708 | 4051 ft | 208 kts | 310° |
| 2026-05-06 20:39 | 39.05029 | -77.12190 | 4035 ft | 194 kts | 281° |
| 2026-05-06 20:39 | 39.04818 | -77.13786 | 3986 ft | 181 kts | 234° |
| 2026-05-06 20:40 | 39.03976 | -77.14963 | 3992 ft | 180 kts | 218° |
| 2026-05-06 20:40 | 39.02746 | -77.15393 | 3844 ft | 191 kts | 187° |
| 2026-05-06 20:40 | 39.01414 | -77.15423 | 3583 ft | 192 kts | 186° |
| 2026-05-06 20:40 | 39.00075 | -77.15414 | 3315 ft | 193 kts | 185° |
| 2026-05-06 20:41 | 38.98957 | -77.15388 | 3091 ft | 189 kts | 184° |
| 2026-05-06 20:41 | 38.97657 | -77.15361 | 2866 ft | 183 kts | 184° |
| 2026-05-06 20:41 | 38.96419 | -77.15248 | 2757 ft | 177 kts | 169° |
| 2026-05-06 20:41 | 38.95405 | -77.14316 | 2761 ft | 185 kts | 141° |
| 2026-05-06 20:42 | 38.94459 | -77.13135 | 2656 ft | 198 kts | 144° |
| 2026-05-06 20:42 | 38.93470 | -77.11992 | 2425 ft | 185 kts | 149° |
| 2026-05-06 20:42 | 38.92411 | -77.11102 | 2066 ft | 179 kts | 157° |
| 2026-05-06 20:42 | 38.91429 | -77.10253 | 1712 ft | 164 kts | 146° |
| 2026-05-06 20:43 | 38.90782 | -77.09064 | 1471 ft | 171 kts | 116° |
| 2026-05-06 20:43 | 38.90305 | -77.07716 | 1273 ft | 160 kts | 134° |
| 2026-05-06 20:43 | 38.89593 | -77.06686 | 1142 ft | 152 kts | 139° |
| 2026-05-06 20:43 | 38.88890 | -77.05697 | 827 ft | 147 kts | 140° |
| 2026-05-06 20:44 | 38.88166 | -77.04783 | 578 ft | 144 kts | 143° |
| 2026-05-06 20:44 | 38.87399 | -77.04092 | 316 ft | 129 kts | 165° |
| 2026-05-06 20:44 | 38.86519 | -77.03906 | 119 ft | 128 kts | 180° |
| 2026-05-06 20:44 | 38.85645 | -77.03823 | 25 ft | 114 kts | 180° |
| 2026-05-06 20:45 | 38.85051 | -77.03766 | 22 ft | 59 kts | 176° |
| 2026-05-06 20:45 | 38.84744 | -77.03734 | 22 ft | 38 kts | 175° |
| 2026-05-06 20:45 | 38.84498 | -77.03711 | 22 ft | 26 kts | 176° |
| 2026-05-06 20:45 | 38.84391 | -77.03774 | 23 ft | 15 kts | 259° |
| 2026-05-06 20:46 | 38.84415 | -77.03839 | 24 ft | 4 kts | 339° |
| 2026-05-06 20:46 | 38.84426 | -77.03842 | 23 ft | 0 kts | 351° |
| 2026-05-06 20:46 | 38.84429 | -77.03843 | 23 ft | 0 kts | 351° |
| 2026-05-06 20:46 | 38.84433 | -77.03843 | 23 ft | 1 kts | 353° |
| 2026-05-06 20:47 | 38.84456 | -77.03847 | 23 ft | 6 kts | 353° |
| 2026-05-06 20:47 | 38.84516 | -77.03854 | 23 ft | 11 kts | 356° |
| 2026-05-06 20:47 | 38.84609 | -77.03862 | 23 ft | 14 kts | 356° |
| 2026-05-06 20:47 | 38.84709 | -77.03872 | 23 ft | 15 kts | 354° |
| 2026-05-06 20:48 | 38.84816 | -77.03885 | 22 ft | 16 kts | 355° |
| 2026-05-06 20:48 | 38.84928 | -77.03894 | 22 ft | 17 kts | 356° |
| 2026-05-06 20:48 | 38.85029 | -77.03904 | 22 ft | 14 kts | 356° |
| 2026-05-06 20:48 | 38.85118 | -77.03913 | 22 ft | 11 kts | 355° |
| 2026-05-06 20:49 | 38.85149 | -77.03935 | 22 ft | 5 kts | 282° |
| 2026-05-06 20:49 | 38.85171 | -77.03977 | 24 ft | 7 kts | 343° |
| 2026-05-06 20:49 | 38.85223 | -77.03984 | 22 ft | 5 kts | 353° |
| 2026-05-06 20:49 | 38.85242 | -77.04008 | 22 ft | 4 kts | 278° |
| 2026-05-06 20:50 | 38.85239 | -77.04039 | 22 ft | 4 kts | 258° |
| 2026-05-06 20:50 | 38.85236 | -77.04060 | 22 ft | 0 kts | 259° |
| 2026-05-06 20:51 | 38.85236 | -77.04059 | 22 ft | 0 kts | 259° |